sensor_id;sensor_type;location;lat;lon;timestamp;P1;durP1;ratioP1;P2;durP2;ratioP2
22995;SDS011;11664;49.774;8.650;2024-01-06T00:00:53;4.43;;;4.05;;
22995;SDS011;11664;49.774;8.650;2024-01-06T00:03:21;3.78;;;3.47;;
22995;SDS011;11664;49.774;8.650;2024-01-06T00:05:52;3.70;;;3.50;;
22995;SDS011;11664;49.774;8.650;2024-01-06T00:08:21;3.70;;;3.40;;
22995;SDS011;11664;49.774;8.650;2024-01-06T00:10:52;5.25;;;3.92;;
22995;SDS011;11664;49.774;8.650;2024-01-06T00:13:29;4.22;;;3.67;;
22995;SDS011;11664;49.774;8.650;2024-01-06T00:15:57;3.78;;;3.58;;
22995;SDS011;11664;49.774;8.650;2024-01-06T00:18:23;3.88;;;3.58;;
22995;SDS011;11664;49.774;8.650;2024-01-06T00:20:49;3.78;;;3.50;;
22995;SDS011;11664;49.774;8.650;2024-01-06T00:23:32;6.90;;;3.85;;
22995;SDS011;11664;49.774;8.650;2024-01-06T00:25:58;5.13;;;4.60;;
22995;SDS011;11664;49.774;8.650;2024-01-06T00:28:29;10.55;;;6.22;;
22995;SDS011;11664;49.774;8.650;2024-01-06T00:30:58;11.30;;;10.50;;
22995;SDS011;11664;49.774;8.650;2024-01-06T00:33:27;6.30;;;5.93;;
22995;SDS011;11664;49.774;8.650;2024-01-06T00:35:52;4.35;;;4.05;;
22995;SDS011;11664;49.774;8.650;2024-01-06T00:38:23;5.07;;;4.72;;
22995;SDS011;11664;49.774;8.650;2024-01-06T00:40:48;4.93;;;4.50;;
22995;SDS011;11664;49.774;8.650;2024-01-06T00:43:20;5.00;;;4.30;;
22995;SDS011;11664;49.774;8.650;2024-01-06T00:45:51;5.45;;;5.05;;
22995;SDS011;11664;49.774;8.650;2024-01-06T00:48:17;6.68;;;6.15;;
22995;SDS011;11664;49.774;8.650;2024-01-06T00:50:49;20.10;;;8.52;;
22995;SDS011;11664;49.774;8.650;2024-01-06T00:53:25;5.57;;;5.07;;
22995;SDS011;11664;49.774;8.650;2024-01-06T00:55:56;5.93;;;5.57;;
22995;SDS011;11664;49.774;8.650;2024-01-06T00:58:22;5.78;;;5.15;;
22995;SDS011;11664;49.774;8.650;2024-01-06T01:00:53;4.97;;;4.68;;
22995;SDS011;11664;49.774;8.650;2024-01-06T01:03:22;11.63;;;7.80;;
22995;SDS011;11664;49.774;8.650;2024-01-06T01:05:47;7.28;;;6.68;;
22995;SDS011;11664;49.774;8.650;2024-01-06T01:08:13;4.45;;;4.15;;
22995;SDS011;11664;49.774;8.650;2024-01-06T01:10:44;5.72;;;4.45;;
22995;SDS011;11664;49.774;8.650;2024-01-06T01:13:13;7.05;;;5.63;;
22995;SDS011;11664;49.774;8.650;2024-01-06T01:15:38;5.07;;;4.75;;
22995;SDS011;11664;49.774;8.650;2024-01-06T01:18:07;8.52;;;7.70;;
22995;SDS011;11664;49.774;8.650;2024-01-06T01:20:32;5.65;;;5.25;;
22995;SDS011;11664;49.774;8.650;2024-01-06T01:23:04;5.22;;;4.07;;
22995;SDS011;11664;49.774;8.650;2024-01-06T01:25:39;5.50;;;5.10;;
22995;SDS011;11664;49.774;8.650;2024-01-06T01:28:16;4.47;;;4.18;;
22995;SDS011;11664;49.774;8.650;2024-01-06T01:30:42;5.03;;;4.72;;
22995;SDS011;11664;49.774;8.650;2024-01-06T01:33:10;6.57;;;4.90;;
22995;SDS011;11664;49.774;8.650;2024-01-06T01:35:51;4.47;;;4.18;;
22995;SDS011;11664;49.774;8.650;2024-01-06T01:38:17;4.95;;;3.72;;
22995;SDS011;11664;49.774;8.650;2024-01-06T01:40:45;4.20;;;3.80;;
22995;SDS011;11664;49.774;8.650;2024-01-06T01:43:20;4.15;;;3.85;;
22995;SDS011;11664;49.774;8.650;2024-01-06T01:45:50;4.88;;;4.28;;
22995;SDS011;11664;49.774;8.650;2024-01-06T01:48:21;4.53;;;4.07;;
22995;SDS011;11664;49.774;8.650;2024-01-06T01:50:48;4.30;;;3.95;;
22995;SDS011;11664;49.774;8.650;2024-01-06T01:53:19;4.28;;;4.00;;
22995;SDS011;11664;49.774;8.650;2024-01-06T01:55:46;5.40;;;4.03;;
22995;SDS011;11664;49.774;8.650;2024-01-06T01:58:13;6.70;;;6.07;;
22995;SDS011;11664;49.774;8.650;2024-01-06T02:00:42;5.72;;;4.45;;
22995;SDS011;11664;49.774;8.650;2024-01-06T02:03:16;8.30;;;4.95;;
22995;SDS011;11664;49.774;8.650;2024-01-06T02:05:48;6.50;;;6.10;;
22995;SDS011;11664;49.774;8.650;2024-01-06T02:08:14;6.15;;;4.63;;
22995;SDS011;11664;49.774;8.650;2024-01-06T02:10:48;4.47;;;4.07;;
22995;SDS011;11664;49.774;8.650;2024-01-06T02:13:14;6.28;;;5.75;;
22995;SDS011;11664;49.774;8.650;2024-01-06T02:15:45;5.70;;;4.20;;
22995;SDS011;11664;49.774;8.650;2024-01-06T02:18:17;3.83;;;3.60;;
22995;SDS011;11664;49.774;8.650;2024-01-06T02:20:45;5.55;;;5.07;;
22995;SDS011;11664;49.774;8.650;2024-01-06T02:23:28;4.00;;;3.70;;
22995;SDS011;11664;49.774;8.650;2024-01-06T02:26:00;7.60;;;4.05;;
22995;SDS011;11664;49.774;8.650;2024-01-06T02:28:35;11.65;;;5.28;;
22995;SDS011;11664;49.774;8.650;2024-01-06T02:31:00;4.65;;;4.25;;
22995;SDS011;11664;49.774;8.650;2024-01-06T02:33:26;4.75;;;4.40;;
22995;SDS011;11664;49.774;8.650;2024-01-06T02:35:55;4.88;;;4.47;;
22995;SDS011;11664;49.774;8.650;2024-01-06T02:38:23;5.13;;;4.80;;
22995;SDS011;11664;49.774;8.650;2024-01-06T02:40:49;5.03;;;4.50;;
22995;SDS011;11664;49.774;8.650;2024-01-06T02:43:15;5.32;;;5.03;;
22995;SDS011;11664;49.774;8.650;2024-01-06T02:45:40;5.20;;;4.90;;
22995;SDS011;11664;49.774;8.650;2024-01-06T02:48:06;4.85;;;4.65;;
22995;SDS011;11664;49.774;8.650;2024-01-06T02:50:34;4.88;;;4.57;;
22995;SDS011;11664;49.774;8.650;2024-01-06T02:53:00;5.50;;;4.97;;
22995;SDS011;11664;49.774;8.650;2024-01-06T02:55:28;3.83;;;3.63;;
22995;SDS011;11664;49.774;8.650;2024-01-06T02:57:54;5.35;;;3.83;;
22995;SDS011;11664;49.774;8.650;2024-01-06T03:00:20;4.28;;;3.97;;
22995;SDS011;11664;49.774;8.650;2024-01-06T03:02:57;6.43;;;4.10;;
22995;SDS011;11664;49.774;8.650;2024-01-06T03:05:29;5.20;;;4.65;;
22995;SDS011;11664;49.774;8.650;2024-01-06T03:07:54;7.32;;;6.18;;
22995;SDS011;11664;49.774;8.650;2024-01-06T03:10:23;13.10;;;7.63;;
22995;SDS011;11664;49.774;8.650;2024-01-06T03:12:48;8.50;;;7.20;;
22995;SDS011;11664;49.774;8.650;2024-01-06T03:15:23;9.20;;;5.75;;
22995;SDS011;11664;49.774;8.650;2024-01-06T03:17:49;6.00;;;5.50;;
22995;SDS011;11664;49.774;8.650;2024-01-06T03:20:20;6.47;;;4.15;;
22995;SDS011;11664;49.774;8.650;2024-01-06T03:22:49;4.70;;;4.40;;
22995;SDS011;11664;49.774;8.650;2024-01-06T03:25:27;4.53;;;4.05;;
22995;SDS011;11664;49.774;8.650;2024-01-06T03:27:55;4.20;;;3.72;;
22995;SDS011;11664;49.774;8.650;2024-01-06T03:30:30;5.10;;;4.45;;
22995;SDS011;11664;49.774;8.650;2024-01-06T03:32:56;4.07;;;3.75;;
22995;SDS011;11664;49.774;8.650;2024-01-06T03:35:28;4.45;;;4.05;;
22995;SDS011;11664;49.774;8.650;2024-01-06T03:37:59;9.20;;;5.47;;
22995;SDS011;11664;49.774;8.650;2024-01-06T03:40:25;6.00;;;5.40;;
22995;SDS011;11664;49.774;8.650;2024-01-06T03:42:56;6.20;;;5.80;;
22995;SDS011;11664;49.774;8.650;2024-01-06T03:45:25;5.85;;;5.20;;
22995;SDS011;11664;49.774;8.650;2024-01-06T03:47:53;11.95;;;5.22;;
22995;SDS011;11664;49.774;8.650;2024-01-06T03:50:19;4.53;;;4.22;;
22995;SDS011;11664;49.774;8.650;2024-01-06T03:53:00;4.03;;;3.72;;
22995;SDS011;11664;49.774;8.650;2024-01-06T03:55:35;10.77;;;3.80;;
22995;SDS011;11664;49.774;8.650;2024-01-06T03:58:00;3.53;;;3.20;;
22995;SDS011;11664;49.774;8.650;2024-01-06T04:00:26;3.63;;;3.42;;
22995;SDS011;11664;49.774;8.650;2024-01-06T04:02:51;5.82;;;4.28;;
22995;SDS011;11664;49.774;8.650;2024-01-06T04:05:23;4.22;;;3.92;;
22995;SDS011;11664;49.774;8.650;2024-01-06T04:07:57;4.32;;;4.07;;
22995;SDS011;11664;49.774;8.650;2024-01-06T04:10:23;5.40;;;4.80;;
22995;SDS011;11664;49.774;8.650;2024-01-06T04:12:55;4.85;;;4.55;;
22995;SDS011;11664;49.774;8.650;2024-01-06T04:15:20;4.80;;;4.40;;
22995;SDS011;11664;49.774;8.650;2024-01-06T04:17:52;3.72;;;3.42;;
22995;SDS011;11664;49.774;8.650;2024-01-06T04:20:17;4.88;;;4.10;;
22995;SDS011;11664;49.774;8.650;2024-01-06T04:22:58;6.70;;;3.73;;
22995;SDS011;11664;49.774;8.650;2024-01-06T04:25:26;5.40;;;3.33;;
22995;SDS011;11664;49.774;8.650;2024-01-06T04:27:55;4.45;;;3.33;;
22995;SDS011;11664;49.774;8.650;2024-01-06T04:30:24;4.18;;;3.78;;
22995;SDS011;11664;49.774;8.650;2024-01-06T04:33:01;3.97;;;3.78;;
22995;SDS011;11664;49.774;8.650;2024-01-06T04:37:56;4.10;;;3.83;;
22995;SDS011;11664;49.774;8.650;2024-01-06T04:40:21;5.13;;;4.65;;
22995;SDS011;11664;49.774;8.650;2024-01-06T04:42:47;5.68;;;5.18;;
22995;SDS011;11664;49.774;8.650;2024-01-06T04:45:28;4.22;;;3.90;;
22995;SDS011;11664;49.774;8.650;2024-01-06T04:47:57;4.38;;;3.38;;
22995;SDS011;11664;49.774;8.650;2024-01-06T04:50:22;4.20;;;3.53;;
22995;SDS011;11664;49.774;8.650;2024-01-06T04:52:48;3.95;;;3.65;;
22995;SDS011;11664;49.774;8.650;2024-01-06T04:55:25;4.28;;;4.00;;
22995;SDS011;11664;49.774;8.650;2024-01-06T04:57:57;5.63;;;4.18;;
22995;SDS011;11664;49.774;8.650;2024-01-06T05:00:25;6.03;;;5.53;;
22995;SDS011;11664;49.774;8.650;2024-01-06T05:02:57;5.15;;;4.80;;
22995;SDS011;11664;49.774;8.650;2024-01-06T05:05:22;5.85;;;5.50;;
22995;SDS011;11664;49.774;8.650;2024-01-06T05:07:51;5.50;;;5.10;;
22995;SDS011;11664;49.774;8.650;2024-01-06T05:10:16;5.10;;;4.78;;
22995;SDS011;11664;49.774;8.650;2024-01-06T05:12:42;3.80;;;3.60;;
22995;SDS011;11664;49.774;8.650;2024-01-06T05:15:08;4.10;;;3.80;;
22995;SDS011;11664;49.774;8.650;2024-01-06T05:17:34;5.85;;;4.53;;
22995;SDS011;11664;49.774;8.650;2024-01-06T05:19:59;5.18;;;4.68;;
22995;SDS011;11664;49.774;8.650;2024-01-06T05:22:25;6.50;;;5.47;;
22995;SDS011;11664;49.774;8.650;2024-01-06T05:24:57;5.30;;;5.00;;
22995;SDS011;11664;49.774;8.650;2024-01-06T05:27:22;5.13;;;4.72;;
22995;SDS011;11664;49.774;8.650;2024-01-06T05:29:48;4.43;;;3.85;;
22995;SDS011;11664;49.774;8.650;2024-01-06T05:32:31;4.50;;;4.15;;
22995;SDS011;11664;49.774;8.650;2024-01-06T05:34:56;6.82;;;5.20;;
22995;SDS011;11664;49.774;8.650;2024-01-06T05:37:22;5.22;;;4.72;;
22995;SDS011;11664;49.774;8.650;2024-01-06T05:39:50;6.63;;;5.80;;
22995;SDS011;11664;49.774;8.650;2024-01-06T05:42:16;6.95;;;5.88;;
22995;SDS011;11664;49.774;8.650;2024-01-06T05:44:41;6.10;;;5.70;;
22995;SDS011;11664;49.774;8.650;2024-01-06T05:47:07;5.78;;;5.38;;
22995;SDS011;11664;49.774;8.650;2024-01-06T05:49:44;6.13;;;5.73;;
22995;SDS011;11664;49.774;8.650;2024-01-06T05:52:10;6.70;;;6.20;;
22995;SDS011;11664;49.774;8.650;2024-01-06T05:54:46;6.00;;;5.60;;
22995;SDS011;11664;49.774;8.650;2024-01-06T05:57:11;4.57;;;3.78;;
22995;SDS011;11664;49.774;8.650;2024-01-06T05:59:40;6.32;;;4.20;;
22995;SDS011;11664;49.774;8.650;2024-01-06T06:02:11;4.45;;;3.58;;
22995;SDS011;11664;49.774;8.650;2024-01-06T06:04:37;6.10;;;4.03;;
22995;SDS011;11664;49.774;8.650;2024-01-06T06:07:02;4.22;;;3.90;;
22995;SDS011;11664;49.774;8.650;2024-01-06T06:09:40;4.10;;;3.80;;
22995;SDS011;11664;49.774;8.650;2024-01-06T06:12:09;4.07;;;3.50;;
22995;SDS011;11664;49.774;8.650;2024-01-06T06:14:40;5.90;;;3.67;;
22995;SDS011;11664;49.774;8.650;2024-01-06T06:17:11;5.38;;;4.10;;
22995;SDS011;11664;49.774;8.650;2024-01-06T06:19:37;4.65;;;4.25;;
22995;SDS011;11664;49.774;8.650;2024-01-06T06:22:03;4.45;;;4.05;;
22995;SDS011;11664;49.774;8.650;2024-01-06T06:24:28;4.40;;;4.00;;
22995;SDS011;11664;49.774;8.650;2024-01-06T06:26:54;4.47;;;4.07;;
22995;SDS011;11664;49.774;8.650;2024-01-06T06:29:23;4.60;;;4.30;;
22995;SDS011;11664;49.774;8.650;2024-01-06T06:31:55;5.40;;;5.05;;
22995;SDS011;11664;49.774;8.650;2024-01-06T06:34:23;7.05;;;5.65;;
22995;SDS011;11664;49.774;8.650;2024-01-06T06:36:49;6.55;;;4.90;;
22995;SDS011;11664;49.774;8.650;2024-01-06T06:39:14;5.22;;;4.78;;
22995;SDS011;11664;49.774;8.650;2024-01-06T06:42:01;5.28;;;4.97;;
22995;SDS011;11664;49.774;8.650;2024-01-06T06:44:27;5.38;;;5.07;;
22995;SDS011;11664;49.774;8.650;2024-01-06T06:46:57;5.15;;;4.75;;
22995;SDS011;11664;49.774;8.650;2024-01-06T06:49:22;4.75;;;4.35;;
22995;SDS011;11664;49.774;8.650;2024-01-06T06:51:48;4.75;;;4.35;;
22995;SDS011;11664;49.774;8.650;2024-01-06T06:54:15;4.50;;;4.18;;
22995;SDS011;11664;49.774;8.650;2024-01-06T06:56:43;4.40;;;4.07;;
22995;SDS011;11664;49.774;8.650;2024-01-06T06:59:15;4.97;;;4.63;;
22995;SDS011;11664;49.774;8.650;2024-01-06T07:01:47;5.00;;;4.60;;
22995;SDS011;11664;49.774;8.650;2024-01-06T07:04:12;5.10;;;4.75;;
22995;SDS011;11664;49.774;8.650;2024-01-06T07:06:44;6.63;;;4.53;;
22995;SDS011;11664;49.774;8.650;2024-01-06T07:09:16;5.00;;;4.20;;
22995;SDS011;11664;49.774;8.650;2024-01-06T07:11:44;6.30;;;4.78;;
22995;SDS011;11664;49.774;8.650;2024-01-06T07:14:12;6.50;;;5.80;;
22995;SDS011;11664;49.774;8.650;2024-01-06T07:16:41;5.38;;;5.07;;
22995;SDS011;11664;49.774;8.650;2024-01-06T07:22:03;5.93;;;5.47;;
22995;SDS011;11664;49.774;8.650;2024-01-06T07:24:33;6.10;;;5.50;;
22995;SDS011;11664;49.774;8.650;2024-01-06T07:26:58;7.28;;;6.65;;
22995;SDS011;11664;49.774;8.650;2024-01-06T07:29:33;9.52;;;6.15;;
22995;SDS011;11664;49.774;8.650;2024-01-06T07:31:59;6.68;;;6.18;;
22995;SDS011;11664;49.774;8.650;2024-01-06T07:34:24;5.55;;;5.22;;
22995;SDS011;11664;49.774;8.650;2024-01-06T07:36:53;6.72;;;6.22;;
22995;SDS011;11664;49.774;8.650;2024-01-06T07:39:24;7.25;;;6.65;;
22995;SDS011;11664;49.774;8.650;2024-01-06T07:41:57;6.72;;;6.32;;
22995;SDS011;11664;49.774;8.650;2024-01-06T07:44:22;6.60;;;6.10;;
22995;SDS011;11664;49.774;8.650;2024-01-06T07:46:52;6.50;;;5.93;;
22995;SDS011;11664;49.774;8.650;2024-01-06T07:49:18;8.20;;;7.53;;
22995;SDS011;11664;49.774;8.650;2024-01-06T07:51:52;7.00;;;6.57;;
22995;SDS011;11664;49.774;8.650;2024-01-06T07:54:27;8.70;;;8.00;;
22995;SDS011;11664;49.774;8.650;2024-01-06T07:56:57;11.85;;;9.13;;
22995;SDS011;11664;49.774;8.650;2024-01-06T07:59:22;8.68;;;8.10;;
22995;SDS011;11664;49.774;8.650;2024-01-06T08:01:55;6.95;;;6.50;;
22995;SDS011;11664;49.774;8.650;2024-01-06T08:04:23;9.40;;;8.60;;
22995;SDS011;11664;49.774;8.650;2024-01-06T08:06:55;10.45;;;9.75;;
22995;SDS011;11664;49.774;8.650;2024-01-06T08:09:20;18.70;;;17.58;;
22995;SDS011;11664;49.774;8.650;2024-01-06T08:11:52;18.60;;;17.50;;
22995;SDS011;11664;49.774;8.650;2024-01-06T08:14:20;6.40;;;5.90;;
22995;SDS011;11664;49.774;8.650;2024-01-06T08:16:46;8.93;;;8.10;;
22995;SDS011;11664;49.774;8.650;2024-01-06T08:19:15;6.47;;;5.93;;
22995;SDS011;11664;49.774;8.650;2024-01-06T08:21:46;9.80;;;7.28;;
22995;SDS011;11664;49.774;8.650;2024-01-06T08:24:13;6.85;;;6.35;;
22995;SDS011;11664;49.774;8.650;2024-01-06T08:26:38;7.15;;;6.55;;
22995;SDS011;11664;49.774;8.650;2024-01-06T08:29:16;11.52;;;10.65;;
22995;SDS011;11664;49.774;8.650;2024-01-06T08:31:44;7.55;;;7.13;;
22995;SDS011;11664;49.774;8.650;2024-01-06T08:34:09;7.75;;;7.13;;
22995;SDS011;11664;49.774;8.650;2024-01-06T08:36:41;5.88;;;5.35;;
22995;SDS011;11664;49.774;8.650;2024-01-06T08:39:10;9.02;;;8.18;;
22995;SDS011;11664;49.774;8.650;2024-01-06T08:41:39;6.90;;;6.25;;
22995;SDS011;11664;49.774;8.650;2024-01-06T08:44:04;11.38;;;6.53;;
22995;SDS011;11664;49.774;8.650;2024-01-06T08:46:33;7.30;;;5.90;;
22995;SDS011;11664;49.774;8.650;2024-01-06T08:48:58;6.95;;;6.47;;
22995;SDS011;11664;49.774;8.650;2024-01-06T08:51:25;6.47;;;5.95;;
22995;SDS011;11664;49.774;8.650;2024-01-06T08:53:51;6.47;;;5.90;;
22995;SDS011;11664;49.774;8.650;2024-01-06T08:56:20;6.50;;;5.93;;
22995;SDS011;11664;49.774;8.650;2024-01-06T08:58:45;7.82;;;7.03;;
22995;SDS011;11664;49.774;8.650;2024-01-06T09:01:15;5.82;;;5.18;;
22995;SDS011;11664;49.774;8.650;2024-01-06T09:03:40;8.25;;;7.32;;
22995;SDS011;11664;49.774;8.650;2024-01-06T09:06:06;7.07;;;5.43;;
22995;SDS011;11664;49.774;8.650;2024-01-06T09:08:34;9.38;;;5.32;;
22995;SDS011;11664;49.774;8.650;2024-01-06T09:11:00;5.35;;;4.95;;
22995;SDS011;11664;49.774;8.650;2024-01-06T09:13:25;6.07;;;5.53;;
22995;SDS011;11664;49.774;8.650;2024-01-06T09:15:57;5.28;;;4.53;;
22995;SDS011;11664;49.774;8.650;2024-01-06T09:18:26;11.55;;;10.65;;
22995;SDS011;11664;49.774;8.650;2024-01-06T09:20:51;8.05;;;7.45;;
22995;SDS011;11664;49.774;8.650;2024-01-06T09:23:17;10.63;;;8.52;;
22995;SDS011;11664;49.774;8.650;2024-01-06T09:25:49;13.23;;;12.32;;
22995;SDS011;11664;49.774;8.650;2024-01-06T09:30:57;5.75;;;5.25;;
22995;SDS011;11664;49.774;8.650;2024-01-06T09:33:25;6.35;;;5.75;;
22995;SDS011;11664;49.774;8.650;2024-01-06T09:35:54;8.98;;;8.27;;
22995;SDS011;11664;49.774;8.650;2024-01-06T09:38:22;7.28;;;6.63;;
22995;SDS011;11664;49.774;8.650;2024-01-06T09:40:48;10.38;;;6.93;;
22995;SDS011;11664;49.774;8.650;2024-01-06T09:43:20;10.20;;;9.40;;
22995;SDS011;11664;49.774;8.650;2024-01-06T09:45:52;12.60;;;11.77;;
22995;SDS011;11664;49.774;8.650;2024-01-06T09:48:48;7.25;;;6.65;;
22995;SDS011;11664;49.774;8.650;2024-01-06T09:51:24;12.40;;;11.43;;
22995;SDS011;11664;49.774;8.650;2024-01-06T09:54:00;15.60;;;14.48;;
22995;SDS011;11664;49.774;8.650;2024-01-06T09:56:26;9.70;;;8.90;;
22995;SDS011;11664;49.774;8.650;2024-01-06T09:58:57;11.18;;;10.27;;
22995;SDS011;11664;49.774;8.650;2024-01-06T10:01:22;11.75;;;10.75;;
22995;SDS011;11664;49.774;8.650;2024-01-06T10:03:54;7.45;;;6.75;;
22995;SDS011;11664;49.774;8.650;2024-01-06T10:06:19;8.30;;;7.60;;
22995;SDS011;11664;49.774;8.650;2024-01-06T10:09:00;12.00;;;10.93;;
22995;SDS011;11664;49.774;8.650;2024-01-06T10:11:25;11.90;;;11.10;;
22995;SDS011;11664;49.774;8.650;2024-01-06T10:14:00;12.10;;;11.10;;
22995;SDS011;11664;49.774;8.650;2024-01-06T10:16:28;8.77;;;7.88;;
22995;SDS011;11664;49.774;8.650;2024-01-06T10:18:59;7.95;;;7.15;;
22995;SDS011;11664;49.774;8.650;2024-01-06T10:21:28;9.10;;;8.17;;
22995;SDS011;11664;49.774;8.650;2024-01-06T10:23:59;8.00;;;7.30;;
22995;SDS011;11664;49.774;8.650;2024-01-06T10:26:26;8.63;;;7.13;;
22995;SDS011;11664;49.774;8.650;2024-01-06T10:28:58;7.95;;;7.25;;
22995;SDS011;11664;49.774;8.650;2024-01-06T10:31:27;8.27;;;7.32;;
22995;SDS011;11664;49.774;8.650;2024-01-06T10:33:52;7.78;;;7.28;;
22995;SDS011;11664;49.774;8.650;2024-01-06T10:36:19;8.15;;;7.43;;
22995;SDS011;11664;49.774;8.650;2024-01-06T10:38:44;8.32;;;7.25;;
22995;SDS011;11664;49.774;8.650;2024-01-06T10:41:13;8.63;;;7.82;;
22995;SDS011;11664;49.774;8.650;2024-01-06T10:43:41;9.50;;;8.73;;
22995;SDS011;11664;49.774;8.650;2024-01-06T10:46:08;17.88;;;10.90;;
22995;SDS011;11664;49.774;8.650;2024-01-06T10:48:37;11.60;;;10.55;;
22995;SDS011;11664;49.774;8.650;2024-01-06T10:51:07;10.02;;;9.07;;
22995;SDS011;11664;49.774;8.650;2024-01-06T10:53:43;9.95;;;9.00;;
22995;SDS011;11664;49.774;8.650;2024-01-06T10:56:21;9.93;;;9.13;;
22995;SDS011;11664;49.774;8.650;2024-01-06T10:58:49;8.98;;;8.27;;
22995;SDS011;11664;49.774;8.650;2024-01-06T11:01:19;8.63;;;7.82;;
22995;SDS011;11664;49.774;8.650;2024-01-06T11:03:46;8.35;;;7.57;;
22995;SDS011;11664;49.774;8.650;2024-01-06T11:06:13;8.63;;;7.80;;
22995;SDS011;11664;49.774;8.650;2024-01-06T11:08:59;10.98;;;10.00;;
22995;SDS011;11664;49.774;8.650;2024-01-06T11:11:35;9.57;;;8.95;;
22995;SDS011;11664;49.774;8.650;2024-01-06T11:16:56;9.25;;;8.07;;
22995;SDS011;11664;49.774;8.650;2024-01-06T11:25:03;5.45;;;4.93;;
22995;SDS011;11664;49.774;8.650;2024-01-06T11:27:43;6.90;;;5.93;;
22995;SDS011;11664;49.774;8.650;2024-01-06T11:30:18;7.45;;;6.68;;
22995;SDS011;11664;49.774;8.650;2024-01-06T11:32:48;8.50;;;7.57;;
22995;SDS011;11664;49.774;8.650;2024-01-06T11:35:17;8.27;;;6.78;;
22995;SDS011;11664;49.774;8.650;2024-01-06T11:43:06;7.70;;;6.00;;
22995;SDS011;11664;49.774;8.650;2024-01-06T11:45:35;8.10;;;6.22;;
22995;SDS011;11664;49.774;8.650;2024-01-06T11:48:09;6.47;;;5.88;;
22995;SDS011;11664;49.774;8.650;2024-01-06T11:50:43;5.90;;;5.32;;
22995;SDS011;11664;49.774;8.650;2024-01-06T11:53:15;4.55;;;4.13;;
22995;SDS011;11664;49.774;8.650;2024-01-06T11:58:34;6.45;;;5.78;;
22995;SDS011;11664;49.774;8.650;2024-01-06T12:01:03;6.78;;;6.00;;
22995;SDS011;11664;49.774;8.650;2024-01-06T12:03:29;7.47;;;6.90;;
22995;SDS011;11664;49.774;8.650;2024-01-06T12:06:04;7.07;;;6.38;;
22995;SDS011;11664;49.774;8.650;2024-01-06T12:08:37;5.88;;;5.32;;
22995;SDS011;11664;49.774;8.650;2024-01-06T12:11:02;7.10;;;6.18;;
22995;SDS011;11664;49.774;8.650;2024-01-06T12:13:28;5.97;;;5.35;;
22995;SDS011;11664;49.774;8.650;2024-01-06T12:15:57;6.25;;;5.07;;
22995;SDS011;11664;49.774;8.650;2024-01-06T12:18:35;6.32;;;4.90;;
22995;SDS011;11664;49.774;8.650;2024-01-06T12:21:05;5.90;;;5.22;;
22995;SDS011;11664;49.774;8.650;2024-01-06T12:23:36;6.00;;;5.50;;
22995;SDS011;11664;49.774;8.650;2024-01-06T12:26:02;8.35;;;7.63;;
22995;SDS011;11664;49.774;8.650;2024-01-06T12:28:27;8.73;;;8.02;;
22995;SDS011;11664;49.774;8.650;2024-01-06T12:30:53;7.90;;;7.28;;
22995;SDS011;11664;49.774;8.650;2024-01-06T12:33:20;6.65;;;6.05;;
22995;SDS011;11664;49.774;8.650;2024-01-06T12:35:47;6.30;;;5.80;;
22995;SDS011;11664;49.774;8.650;2024-01-06T12:38:12;12.07;;;6.05;;
22995;SDS011;11664;49.774;8.650;2024-01-06T12:40:44;6.15;;;5.45;;
22995;SDS011;11664;49.774;8.650;2024-01-06T12:43:11;7.07;;;5.75;;
22995;SDS011;11664;49.774;8.650;2024-01-06T12:45:43;7.32;;;5.65;;
22995;SDS011;11664;49.774;8.650;2024-01-06T12:48:09;5.28;;;4.18;;
22995;SDS011;11664;49.774;8.650;2024-01-06T12:50:43;7.40;;;5.40;;
22995;SDS011;11664;49.774;8.650;2024-01-06T12:53:18;7.80;;;6.60;;
22995;SDS011;11664;49.774;8.650;2024-01-06T12:55:44;8.02;;;7.32;;
22995;SDS011;11664;49.774;8.650;2024-01-06T12:58:16;7.57;;;6.90;;
22995;SDS011;11664;49.774;8.650;2024-01-06T13:00:44;6.53;;;5.90;;
22995;SDS011;11664;49.774;8.650;2024-01-06T13:03:16;7.75;;;5.30;;
22995;SDS011;11664;49.774;8.650;2024-01-06T13:05:44;7.85;;;4.63;;
22995;SDS011;11664;49.774;8.650;2024-01-06T13:08:10;5.68;;;5.18;;
22995;SDS011;11664;49.774;8.650;2024-01-06T13:10:57;6.63;;;4.78;;
22995;SDS011;11664;49.774;8.650;2024-01-06T13:13:22;6.15;;;4.90;;
22995;SDS011;11664;49.774;8.650;2024-01-06T13:15:57;6.95;;;4.95;;
22995;SDS011;11664;49.774;8.650;2024-01-06T13:18:33;8.65;;;4.55;;
22995;SDS011;11664;49.774;8.650;2024-01-06T13:20:58;6.00;;;5.40;;
22995;SDS011;11664;49.774;8.650;2024-01-06T13:23:33;8.98;;;5.97;;
22995;SDS011;11664;49.774;8.650;2024-01-06T13:26:02;6.15;;;5.55;;
22995;SDS011;11664;49.774;8.650;2024-01-06T13:28:34;5.80;;;5.20;;
22995;SDS011;11664;49.774;8.650;2024-01-06T13:31:03;6.60;;;4.90;;
22995;SDS011;11664;49.774;8.650;2024-01-06T13:33:28;9.85;;;5.55;;
22995;SDS011;11664;49.774;8.650;2024-01-06T13:35:54;5.43;;;4.93;;
22995;SDS011;11664;49.774;8.650;2024-01-06T13:38:19;7.15;;;5.18;;
22995;SDS011;11664;49.774;8.650;2024-01-06T13:40:50;6.05;;;4.53;;
22995;SDS011;11664;49.774;8.650;2024-01-06T13:43:18;10.20;;;4.87;;
22995;SDS011;11664;49.774;8.650;2024-01-06T13:45:44;6.78;;;5.13;;
22995;SDS011;11664;49.774;8.650;2024-01-06T13:48:15;6.15;;;4.97;;
22995;SDS011;11664;49.774;8.650;2024-01-06T13:50:47;6.60;;;5.32;;
22995;SDS011;11664;49.774;8.650;2024-01-06T13:53:22;5.18;;;4.63;;
22995;SDS011;11664;49.774;8.650;2024-01-06T13:55:48;6.53;;;4.65;;
22995;SDS011;11664;49.774;8.650;2024-01-06T13:58:22;6.00;;;4.68;;
22995;SDS011;11664;49.774;8.650;2024-01-06T14:00:51;5.05;;;4.10;;
22995;SDS011;11664;49.774;8.650;2024-01-06T14:03:16;5.65;;;4.78;;
22995;SDS011;11664;49.774;8.650;2024-01-06T14:05:48;6.05;;;4.43;;
22995;SDS011;11664;49.774;8.650;2024-01-06T14:08:22;5.95;;;5.35;;
22995;SDS011;11664;49.774;8.650;2024-01-06T14:10:49;5.13;;;4.68;;
22995;SDS011;11664;49.774;8.650;2024-01-06T14:13:17;5.35;;;4.85;;
22995;SDS011;11664;49.774;8.650;2024-01-06T14:15:43;8.75;;;5.53;;
22995;SDS011;11664;49.774;8.650;2024-01-06T14:18:08;7.00;;;5.47;;
22995;SDS011;11664;49.774;8.650;2024-01-06T14:20:35;7.90;;;7.10;;
22995;SDS011;11664;49.774;8.650;2024-01-06T14:23:13;8.80;;;7.55;;
22995;SDS011;11664;49.774;8.650;2024-01-06T14:25:39;8.57;;;7.60;;
22995;SDS011;11664;49.774;8.650;2024-01-06T14:28:20;9.05;;;7.90;;
22995;SDS011;11664;49.774;8.650;2024-01-06T14:30:48;9.07;;;7.70;;
22995;SDS011;11664;49.774;8.650;2024-01-06T14:33:17;7.97;;;6.55;;
22995;SDS011;11664;49.774;8.650;2024-01-06T14:35:43;8.13;;;6.45;;
22995;SDS011;11664;49.774;8.650;2024-01-06T14:38:12;8.82;;;5.70;;
22995;SDS011;11664;49.774;8.650;2024-01-06T14:40:41;6.75;;;6.05;;
22995;SDS011;11664;49.774;8.650;2024-01-06T14:43:15;6.60;;;6.00;;
22995;SDS011;11664;49.774;8.650;2024-01-06T14:45:41;6.88;;;6.03;;
22995;SDS011;11664;49.774;8.650;2024-01-06T14:48:15;7.65;;;7.05;;
22995;SDS011;11664;49.774;8.650;2024-01-06T14:50:44;7.00;;;6.38;;
22995;SDS011;11664;49.774;8.650;2024-01-06T14:53:16;7.03;;;6.28;;
22995;SDS011;11664;49.774;8.650;2024-01-06T14:55:44;7.53;;;6.65;;
22995;SDS011;11664;49.774;8.650;2024-01-06T14:58:13;7.35;;;6.63;;
22995;SDS011;11664;49.774;8.650;2024-01-06T15:00:40;13.30;;;7.45;;
22995;SDS011;11664;49.774;8.650;2024-01-06T15:03:06;8.20;;;7.60;;
22995;SDS011;11664;49.774;8.650;2024-01-06T15:05:34;7.50;;;6.82;;
22995;SDS011;11664;49.774;8.650;2024-01-06T15:08:00;8.20;;;7.30;;
22995;SDS011;11664;49.774;8.650;2024-01-06T15:10:26;8.38;;;7.55;;
22995;SDS011;11664;49.774;8.650;2024-01-06T15:12:51;10.10;;;7.00;;
22995;SDS011;11664;49.774;8.650;2024-01-06T15:15:23;25.65;;;23.77;;
22995;SDS011;11664;49.774;8.650;2024-01-06T15:17:55;11.27;;;9.85;;
22995;SDS011;11664;49.774;8.650;2024-01-06T15:20:20;9.35;;;8.45;;
22995;SDS011;11664;49.774;8.650;2024-01-06T15:22:48;11.05;;;7.32;;